Vers la page d'accueil de NAV CANADA Ouverture d'une nouvelle session Chercher sur le site AWWS Clause de non-reponsabilité To the equivalent English page Trucs et astuces FAQ Quoi de neuf sur le site Vers la section Prévisions et observations / NOTAM Vers le site web pour <<Déposer un plan de vol>> Publications et liens importants Mise à jour du profil d'usager Numéros de téléphone des FIC Mes données météo personnelles Données météo de route Données météo régionales Données météo locales Vers la section Prévisions et observations / NOTAM
Requête générée le 2019/02/18 à 14:19:05 UTC. L'information météorologique disponible à ce moment est affichée.

METAR/TAF

Si vous notez des différences entre le METAR/TAF codé et le METAR/TAF en langage clair, veuillez utiliser la version codée. Les bulletins LWIS ne sont pas décodés en langage clair.

OTTAWA/GATINEAU/QC    

METAR CYND 181400Z 35005KT 330V030 15SM SCT080 OVC100 M11/M17 A3003 RMK AC3AC5 P176=
METAR
LIEU
CYND - OTTAWA/GATINEAU/QC
DATE - HEURE
18 FEVRIER 2019 - 1400 UTC
VENT
350 VRAIS @ 5  NOEUDS
VARIATION
330 <-> 30  DEG
VISIBILITE
15 MILLES TERR.
PORTEE VISUELLE DE PISTE
METEO
NEBULOSITE
NUAGES EPARS (3/8 - 4/8) 8000  PI
CIEL COUVERT 10000  PI
TEMP / PT DE ROSEE
-11 C / -17 C
ALTIMETRE
30.03 PO HG
TEMPS RECENT
CISAILLEMENT

METAR CYND 181300Z 02005KT 15SM BKN085 M11/M17 A3001 RMK AC7 SLP171=
METAR
LIEU
CYND - OTTAWA/GATINEAU/QC
DATE - HEURE
18 FEVRIER 2019 - 1300 UTC
VENT
20 VRAIS @ 5  NOEUDS
VISIBILITE
15 MILLES TERR.
PORTEE VISUELLE DE PISTE
METEO
NEBULOSITE
NUAGES FRAGMENTES (5/8 - 7/8) 8500  PI
TEMP / PT DE ROSEE
-11 C / -17 C
ALTIMETRE
30.01 PO HG
TEMPS RECENT
CISAILLEMENT

LWIS CYND 181200Z AUTO 01006KT M11/M17 A3000=

TAF CYND 181338Z 1814/1902 01006KT P6SM FEW030 BKN180 BECMG 1814/1816 36010KT FM181800 34012KT P6SM BKN130 FM190000 33007KT P6SM FEW030 RMK NXT FCST BY 181800Z=
TAF
LIEU

CYND - OTTAWA/GATINEAU/QC
VALIDITE [UTC]
18 FEB - 1338 à
19 FEB - 0200
 
PERIODES
[UTC]
VENT
[DEGRES VRAIS]
VISIBILITE
[MILLES TERR.]
METEO
NEBULOSITE
[PIEDS AGL]
 
18 FEB - 1400 à
18 FEB - 1800
10 @ 6 NOEUDS
6+
---
3000 QUELQUES
18000 FRAGMENTES
CHANGEMENTS GRADUELS
18 FEB - 1400 à
18 FEB - 1600
360 @ 10 NOEUDS
 
 
 
 
18 FEB - 1800 à
19 FEB - 0000
340 @ 12 NOEUDS
6+
---
13000 FRAGMENTES
 
19 FEB - 0000 à
19 FEB - 0200
330 @ 7 NOEUDS
6+
---
3000 QUELQUES
REMARQUES
LA PREVISION SUIVANTE SERA EMISE POUR 1800 UTC LE 18


Votre heure Heure UTC
Données météorologiques fournies par Environnement Canada et NAV CANADA